Map

Track Data

SID SEASON NUMBER BASIN SUBBASIN NAME ISO_TIME NATURE LAT LON WMO_WIND WMO_PRES WMO_AGENCY TRACK_TYPE DIST2LAND LANDFALL IFLAG USA_AGENCY USA_ATCF_ID USA_LAT USA_LON USA_RECORD USA_STATUS USA_WIND USA_PRES USA_SSHS USA_R34_NE USA_R34_SE USA_R34_SW USA_R34_NW USA_R50_NE USA_R50_SE USA_R50_SW USA_R50_NW USA_R64_NE USA_R64_SE USA_R64_SW USA_R64_NW USA_POCI USA_ROCI USA_RMW USA_EYE TOKYO_LAT TOKYO_LON TOKYO_GRADE TOKYO_WIND TOKYO_PRES TOKYO_R50_DIR TOKYO_R50_LONG TOKYO_R50_SHORT TOKYO_R30_DIR TOKYO_R30_LONG TOKYO_R30_SHORT TOKYO_LAND CMA_LAT CMA_LON CMA_CAT CMA_WIND CMA_PRES HKO_LAT HKO_LON HKO_CAT HKO_WIND HKO_PRES NEWDELHI_LAT NEWDELHI_LON NEWDELHI_GRADE NEWDELHI_WIND NEWDELHI_PRES NEWDELHI_CI NEWDELHI_DP NEWDELHI_POCI REUNION_LAT REUNION_LON REUNION_TYPE REUNION_WIND REUNION_PRES REUNION_TNUM REUNION_CI REUNION_RMW REUNION_R34_NE REUNION_R34_SE REUNION_R34_SW REUNION_R34_NW REUNION_R50_NE REUNION_R50_SE REUNION_R50_SW REUNION_R50_NW REUNION_R64_NE REUNION_R64_SE REUNION_R64_SW REUNION_R64_NW BOM_LAT BOM_LON BOM_TYPE BOM_WIND BOM_PRES BOM_TNUM BOM_CI BOM_RMW BOM_R34_NE BOM_R34_SE BOM_R34_SW BOM_R34_NW BOM_R50_NE BOM_R50_SE BOM_R50_SW BOM_R50_NW BOM_R64_NE BOM_R64_SE BOM_R64_SW BOM_R64_NW BOM_ROCI BOM_POCI BOM_EYE BOM_POS_METHOD BOM_PRES_METHOD NADI_LAT NADI_LON NADI_CAT NADI_WIND NADI_PRES WELLINGTON_LAT WELLINGTON_LON WELLINGTON_WIND WELLINGTON_PRES DS824_LAT DS824_LON DS824_STAGE DS824_WIND DS824_PRES TD9636_LAT TD9636_LON TD9636_STAGE TD9636_WIND TD9636_PRES TD9635_LAT TD9635_LON TD9635_WIND TD9635_PRES TD9635_ROCI NEUMANN_LAT NEUMANN_LON NEUMANN_CLASS NEUMANN_WIND NEUMANN_PRES MLC_LAT MLC_LON MLC_CLASS MLC_WIND MLC_PRES USA_GUST BOM_GUST BOM_GUST_PER REUNION_GUST REUNION_GUST_PER USA_SEAHGT USA_SEARAD_NE USA_SEARAD_SE USA_SEARAD_SW USA_SEARAD_NW STORM_SPEED STORM_DIR
1986316N06146 1986 110 WP MM JOE 1986-11-12 00:00:00 NR 6.00000 145.500 main 915 915 __________O___ -1 6.00000 145.500 0 1 271
1986316N06146 1986 110 WP MM JOE 1986-11-12 03:00:00 NR 6.00157 145.430 main 917 917 __________P___ -1 6.00157 145.430 0 1 271
1986316N06146 1986 110 WP MM JOE 1986-11-12 06:00:00 NR 6.00251 145.358 main 917 917 __________P___ -1 6.00251 145.358 0 1 270
1986316N06146 1986 110 WP MM JOE 1986-11-12 09:00:00 NR 6.00219 145.282 main 919 919 __________P___ -1 6.00219 145.282 0 2 269
1986316N06146 1986 110 WP MM JOE 1986-11-12 12:00:00 NR 6.00000 145.200 main 920 920 __________O___ -1 6.00000 145.200 0 2 268
1986316N06146 1986 110 WP MM JOE 1986-11-12 15:00:00 NR 5.99593 145.111 main 922 922 __________P___ -1 5.99593 145.111 0 2 268
1986316N06146 1986 110 WP MM JOE 1986-11-12 18:00:00 NR 5.99249 145.015 main 924 924 __________P___ -1 5.99249 145.015 0 2 269
1986316N06146 1986 110 WP MM JOE 1986-11-12 21:00:00 NR 5.99280 144.911 main 927 927 __________P___ -1 5.99280 144.911 0 2 272
1986316N06146 1986 110 WP MM JOE 1986-11-13 00:00:00 NR 6.00000 144.800 main 929 929 __________O___ -1 6.00000 144.800 0 2 275
1986316N06146 1986 110 WP MM JOE 1986-11-13 03:00:00 NR 6.01376 144.674 main 931 931 __________P___ -1 6.01376 144.674 0 3 278
1986316N06146 1986 110 WP MM JOE 1986-11-13 06:00:00 NR 6.03502 144.543 main 937 937 __________P___ -1 6.03502 144.543 0 3 281
1986316N06146 1986 110 WP MM JOE 1986-11-13 09:00:00 NR 6.06376 144.415 main 950 950 __________P___ -1 6.06376 144.415 0 3 285
1986316N06146 1986 110 WP MM JOE 1986-11-13 12:00:00 NR 6.10000 144.300 main 953 953 __________O___ -1 6.10000 144.300 0 2 294
1986316N06146 1986 110 WP MM JOE 1986-11-13 15:00:00 NR 6.14684 144.227 main 956 956 __________P___ -1 6.14684 144.227 0 2 307
1986316N06146 1986 110 WP MM JOE 1986-11-13 18:00:00 NR 6.19994 144.165 main 967 967 __________P___ -1 6.19994 144.165 0 2 309
1986316N06146 1986 110 WP MM JOE 1986-11-13 21:00:00 NR 6.25308 144.096 main 981 981 __________P___ -1 6.25308 144.096 0 2 302
1986316N06146 1986 110 WP MM JOE 1986-11-14 00:00:00 NR 6.30000 144.000 main 984 984 __________O___ -1 6.30000 144.000 0 15 3 287
1986316N06146 1986 110 WP MM JOE 1986-11-14 03:00:00 NR 6.32814 143.854 main 987 987 __________P___ -1 6.32814 143.854 0 15 3 279
1986316N06146 1986 110 WP MM JOE 1986-11-14 06:00:00 NR 6.35002 143.680 main 1005 1005 __________P___ -1 6.35002 143.680 0 15 4 277
1986316N06146 1986 110 WP MM JOE 1986-11-14 09:00:00 NR 6.37189 143.491 main 1012 1012 __________P___ -1 6.37189 143.491 0 15 4 278
1986316N06146 1986 110 WP MM JOE 1986-11-14 12:00:00 NR 6.40000 143.300 main 1020 1020 __________O___ -1 6.40000 143.300 0 15 3 282
1986316N06146 1986 110 WP MM JOE 1986-11-14 15:00:00 NR 6.43849 143.186 main 1024 1024 __________P___ -1 6.43849 143.186 0 15 3 290
1986316N06146 1986 110 WP MM JOE 1986-11-14 18:00:00 NR 6.48457 143.062 main 1039 1035 __________P___ -1 6.48457 143.062 0 15 3 288
1986316N06146 1986 110 WP MM JOE 1986-11-14 21:00:00 NR 6.53837 142.883 main 1035 1032 __________P___ -1 6.53837 142.883 0 15 5 284
1986316N06146 1986 110 WP MM JOE 1986-11-15 00:00:00 NR 6.60000 142.600 main 1036 1018 __________O___ -1 6.60000 142.600 1 15 7 279
1986316N06146 1986 110 WP MM JOE 1986-11-15 03:00:00 NR 6.65573 142.174 main 1028 1008 __________P___ -1 6.65573 142.174 1 17 10 277
1986316N06146 1986 110 WP MM JOE 1986-11-15 06:00:00 NR 6.72011 141.642 main 1003 994 __________P___ -1 6.72011 141.642 1 20 11 277
1986316N06146 1986 110 WP MM JOE 1986-11-15 09:00:00 NR 6.79940 141.039 main 991 981 __________P___ -1 6.79940 141.039 1 22 12 278
1986316N06146 1986 110 WP MM JOE 1986-11-15 12:00:00 NR 6.90000 140.400 main 983 975 __________O___ -1 6.90000 140.400 1 25 13 280
1986316N06146 1986 110 WP MM JOE 1986-11-15 15:00:00 NR 7.02042 139.758 main 975 958 __________P___ -1 7.02042 139.758 1 25 13 281
1986316N06146 1986 110 WP MM JOE 1986-11-15 18:00:00 NR 7.16268 139.093 main 964 948 __________P___ -1 7.16268 139.093 1 25 14 283
1986316N06146 1986 110 WP MM JOE 1986-11-15 21:00:00 NR 7.32356 138.430 main 948 945 __________P___ -1 7.32356 138.430 1 25 13 285
1986316N06146 1986 110 WP MM JOE 1986-11-16 00:00:00 NR 7.50000 137.800 main 950 945 __________O___ -1 7.50000 137.800 1 25 12 287
1986316N06146 1986 110 WP MM JOE 1986-11-16 03:00:00 NR 7.67294 137.247 main 957 954 __________P___ -1 7.67294 137.247 1 25 11 289
1986316N06146 1986 110 WP MM JOE 1986-11-16 06:00:00 NR 7.86183 136.727 main 971 968 __________P___ -1 7.86183 136.727 1 25 11 291
1986316N06146 1986 110 WP MM JOE 1986-11-16 09:00:00 NR 8.06983 136.219 main 988 987 __________P___ -1 8.06983 136.219 1 25 11 293
1986316N06146 1986 110 WP MM JOE 1986-11-16 12:00:00 NR 8.30000 135.700 main 1005 951 __________O___ -1 8.30000 135.700 1 25 12 294
1986316N06146 1986 110 WP MM JOE 1986-11-16 15:00:00 NR 8.56157 135.123 main 941 889 __________P___ -1 8.56157 135.123 1 25 13 295
1986316N06146 1986 110 WP MM JOE 1986-11-16 18:00:00 NR 8.84254 134.535 main 878 829 __________P___ -1 8.84254 134.535 1 25 13 296
1986316N06146 1986 110 WP MM JOE 1986-11-16 21:00:00 NR 9.12722 133.954 main 829 772 __________P___ -1 9.12722 133.954 1 25 13 296
1986316N06146 1986 110 WP MM JOE 1986-11-17 00:00:00 NR 9.40000 133.400 main 772 725 __________O___ -1 9.40000 133.400 1 25 12 295
1986316N06146 1986 110 WP MM JOE 1986-11-17 03:00:00 NR 9.61068 132.879 main 725 679 __________P___ -1 9.61068 132.879 1 25 11 292
1986316N06146 1986 110 WP MM JOE 1986-11-17 06:00:00 NR 9.81221 132.389 main 679 640 __________P___ -1 9.81221 132.389 1 25 10 294
1986316N06146 1986 110 WP MM JOE 1986-11-17 09:00:00 NR 10.0326 131.929 main 629 594 __________P___ -1 10.0326 131.929 1 25 10 299
1986316N06146 1986 110 WP MM JOE 1986-11-17 12:00:00 NR 10.3000 131.500 main 594 559 __________O___ -1 10.3000 131.500 1 25 11 307
1986316N06146 1986 110 WP MM JOE 1986-11-17 15:00:00 NR 10.6739 131.072 main 562 535 __________P___ -1 10.6739 131.072 1 25 11 317
1986316N06146 1986 110 WP MM JOE 1986-11-17 18:00:00 TS 11.1339 130.720 1006 tokyo main 535 504 _O________P___ -1 11.3000 130.900 2 1006 0 0 0 11.0924 130.676 1 25 11 321
1986316N06146 1986 110 WP MM JOE 1986-11-17 21:00:00 TS 11.5215 130.374 main 505 488 _P________P___ -1 11.5351 130.490 2 1006 0 0 11.5146 130.316 1 25 10 328
1986316N06146 1986 110 WP MM JOE 1986-11-18 00:00:00 TS 11.9375 130.200 1006 tokyo main 490 477 _OO_______O___ -1 11.8000 130.100 2 1006 0 0 0 12.5000 131.300 0 19 1006 11.9000 130.000 1 25 8 331
1986316N06146 1986 110 WP MM JOE 1986-11-18 03:00:00 TS 12.2412 129.960 main 477 456 _PP_______P___ -1 12.1074 129.742 2 1005 0 0 12.5901 130.765 0 21 1005 12.2006 129.776 1 26 8 318
1986316N06146 1986 110 WP MM JOE 1986-11-18 06:00:00 TS 12.4947 129.687 1004 tokyo main 456 427 _OOO______P___ -1 12.4000 129.400 2 1004 0 0 0 12.7000 130.200 1 23 1004 12.4000 129.700 TD 30 1000 12.4590 129.586 1 27 8 307
1986316N06146 1986 110 WP MM JOE 1986-11-18 09:00:00 TS 12.7087 129.331 main 416 377 _PPP______P___ -1 12.6224 129.065 2 1002 0 0 12.8425 129.593 1 26 1002 12.6552 129.248 TD 30 999 12.6880 129.379 1 28 9 298
1986316N06146 1986 110 WP MM JOE 1986-11-18 12:00:00 TS 12.9000 128.907 1000 tokyo main 377 337 _OOO______O___ -1 12.8000 128.700 2 1000 0 0 0 13.0000 129.000 1 29 1000 12.9000 128.800 TD 30 998 12.9000 129.100 1 30 9 294
1986316N06146 1986 110 WP MM JOE 1986-11-18 15:00:00 TS 13.0882 128.442 main 330 293 _PPP______P___ -1 12.9575 128.257 2 998 0 0 13.1498 128.485 1 29 999 13.1224 128.357 TD 30 996 13.1229 128.667 1 33 10 292
1986316N06146 1986 110 WP MM JOE 1986-11-18 18:00:00 TS 13.2778 127.967 35 996 tokyo main 297 255 OOOO______P___ jtwc_wp WP241986 13.6000 128.000 40 0 13.1000 127.800 3 35 996 0 9 100 100 0 13.3000 128.000 1 29 998 13.3000 127.900 TD 30 995 13.3306 128.160 1 37 10 290
1986316N06146 1986 110 WP MM JOE 1986-11-18 21:00:00 TS 13.4306 127.484 main 255 225 PPPP______P___ WP241986 13.6601 127.568 42 0 13.2349 127.392 3 37 994 0 9 150 100 13.4425 127.477 1 33 996 13.4075 127.400 TD 32 992 13.5229 127.623 1 41 10 288
1986316N06146 1986 110 WP MM JOE 1986-11-19 00:00:00 TS 13.5737 127.016 40 992 tokyo main 225 202 OOOO______O___ jtwc_wp WP241986 13.7000 127.100 45 0 13.4000 127.000 3 40 992 0 1 200 100 0 13.6000 127.000 2 38 995 13.5000 126.900 TS 35 990 13.7000 127.100 2 45 9 288
1986316N06146 1986 110 WP MM JOE 1986-11-19 03:00:00 TS 13.7252 126.574 main 202 188 PPPP______P___ WP241986 13.7201 126.585 47 0 13.6349 126.600 3 42 991 0 1 200 100 13.7923 126.635 2 43 992 13.6350 126.427 TS 42 987 13.8439 126.625 2 47 9 291
1986316N06146 1986 110 WP MM JOE 1986-11-19 06:00:00 TS 13.8955 126.155 45 990 tokyo main 190 152 OOOO______P___ jtwc_wp WP241986 13.8000 126.100 50 0 13.9000 126.200 3 45 990 0 1 200 100 0 14.0000 126.300 3 48 990 13.8000 126.000 STS 50 985 13.9774 126.174 2 50 9 295
1986316N06146 1986 110 WP MM JOE 1986-11-19 09:00:00 TS 14.0984 125.759 main 152 116 PPPP______P___ WP241986 14.0199 125.720 52 0 14.1500 125.785 3 47 987 0 1 225 150 14.2150 125.900 3 48 987 13.9849 125.627 STS 50 985 14.1222 125.762 2 52 8 300
1986316N06146 1986 110 WP MM JOE 1986-11-19 12:00:00 TS 14.3200 125.400 50 985 tokyo main 116 101 OOOO______O___ jtwc_wp WP241986 14.3000 125.400 55 0 14.4000 125.400 4 50 985 0 1 250 200 0 14.4000 125.500 3 48 985 14.2000 125.300 STS 50 985 14.3000 125.400 2 55 8 303
1986316N06146 1986 110 WP MM JOE 1986-11-19 15:00:00 TS 14.5286 125.063 main 101 93 PPPP______P___ WP241986 14.5425 125.077 57 0 14.6574 125.077 4 52 982 0 1 250 200 14.4775 125.112 3 48 984 14.4350 124.977 STS 52 982 14.5307 125.071 2 57 7 306
1986316N06146 1986 110 WP MM JOE 1986-11-19 18:00:00 TS 14.7594 124.779 55 980 tokyo main 104 99 OOOO______P___ jtwc_wp WP241986 14.8000 124.800 60 0 14.9000 124.800 4 55 980 9 50 50 1 250 200 0 14.6000 124.800 3 48 984 14.7000 124.700 STS 55 980 14.7972 124.795 2 60 7 315
1986316N06146 1986 110 WP MM JOE 1986-11-19 21:00:00 TS 15.0345 124.544 main 114 114 PPPP______P___ WP241986 15.0850 124.570 62 0 15.0925 124.512 4 60 977 9 70 70 1 250 200 14.9124 124.605 3 53 979 14.9925 124.463 STS 57 977 15.0902 124.571 2 62 7 326
1986316N06146 1986 110 WP MM JOE 1986-11-20 00:00:00 TS 15.3400 124.380 65 975 tokyo main 145 145 OOOO______O___ jtwc_wp WP241986 15.4000 124.400 65 1 15.3000 124.300 5 65 975 9 90 90 1 250 200 0 15.3000 124.500 3 58 975 15.3000 124.300 STS 60 975 15.4000 124.400 3 65 7 338
1986316N06146 1986 110 WP MM JOE 1986-11-20 03:00:00 TS 15.6508 124.286 main 190 190 PPPP______P___ WP241986 15.7500 124.277 62 0 15.5700 124.212 5 67 970 9 95 95 1 250 200 15.6425 124.442 3 63 970 15.5850 124.227 STS 62 970 15.7064 124.270 3 67 7 348
1986316N06146 1986 110 WP MM JOE 1986-11-20 06:00:00 TS 15.9855 124.238 70 965 tokyo main 207 193 OOOO______P___ jtwc_wp WP241986 16.1000 124.200 60 0 15.9000 124.200 5 70 965 9 100 100 1 250 200 0 16.0000 124.400 4 68 965 15.9000 124.200 T 65 965 16.0273 124.190 3 70 7 353
1986316N06146 1986 110 WP MM JOE 1986-11-20 09:00:00 TS 16.3489 124.191 main 193 171 PPPP______P___ WP241986 16.4000 124.150 67 1 16.2925 124.207 5 72 962 9 100 100 1 262 212 16.4075 124.308 4 72 965 16.2850 124.150 T 67 962 16.3596 124.139 3 72 7 352
1986316N06146 1986 110 WP MM JOE 1986-11-20 12:00:00 TS 16.7200 124.140 75 960 tokyo main 171 170 OOOO______O___ jtwc_wp WP241986 16.7000 124.100 75 1 16.7000 124.200 5 75 960 9 100 100 1 275 225 0 16.8000 124.200 4 77 965 16.7000 124.100 T 70 960 16.7000 124.100 4 75 7 350
1986316N06146 1986 110 WP MM JOE 1986-11-20 15:00:00 TS 17.0723 124.054 main 170 159 PPPP______P___ WP241986 17.0425 123.993 77 1 17.0575 124.108 5 75 955 9 112 112 1 275 225 17.1150 124.092 4 77 960 17.1075 124.043 T 75 952 17.0387 124.035 4 78 7 347
1986316N06146 1986 110 WP MM JOE 1986-11-20 18:00:00 TS 17.4170 123.976 75 950 tokyo main 165 162 OOOO______P___ jtwc_wp WP241986 17.4000 123.900 80 1 17.4000 124.000 5 75 950 9 125 125 1 275 225 0 17.4000 124.000 4 77 955 17.5000 124.000 T 80 945 17.3850 123.978 4 82 7 351
1986316N06146 1986 110 WP MM JOE 1986-11-20 21:00:00 TS 17.7517 123.934 main 168 168 PPPP______P___ WP241986 17.7425 123.885 85 2 17.7425 123.935 5 80 945 9 137 137 1 287 237 17.6775 123.928 4 82 947 17.8575 123.992 T 82 942 17.7388 123.932 4 86 7 355
1986316N06146 1986 110 WP MM JOE 1986-11-21 00:00:00 TS 18.1000 123.920 85 940 tokyo main 170 168 OOOO______O___ jtwc_wp WP241986 18.1000 123.900 90 2 18.1000 123.900 5 85 940 9 150 150 1 300 250 0 18.0000 123.900 5 87 940 18.2000 124.000 ST 85 940 18.1000 123.900 4 90 7 0
1986316N06146 1986 110 WP MM JOE 1986-11-21 03:00:00 TS 18.4953 123.921 main 169 169 PPPP______P___ WP241986 18.5000 123.900 95 2 18.4925 123.885 5 85 940 9 150 150 1 300 250 18.4425 123.942 5 87 940 18.5575 124.000 ST 90 940 18.4840 123.877 4 92 8 0
1986316N06146 1986 110 WP MM JOE 1986-11-21 06:00:00 TS 18.8945 123.934 85 940 tokyo main 177 177 OOOO______P___ jtwc_wp WP241986 18.9000 123.900 100 3 18.9000 123.900 5 85 940 9 150 150 1 300 250 0 18.9000 124.000 5 87 940 18.9000 124.000 ST 95 940 18.8725 123.870 4 95 8 0
1986316N06146 1986 110 WP MM JOE 1986-11-21 09:00:00 TS 19.2649 123.946 main 196 196 PPPP______P___ WP241986 19.2650 123.893 100 3 19.3300 123.950 5 85 942 9 150 150 1 350 225 19.2725 124.008 5 87 938 19.2075 124.000 ST 92 942 19.2497 123.878 4 97 7 1
1986316N06146 1986 110 WP MM JOE 1986-11-21 12:00:00 TS 19.6000 123.960 85 945 tokyo main 223 223 OOOO______O___ jtwc_wp WP241986 19.6000 123.900 100 3 19.7000 124.000 5 85 945 9 150 150 8 400 200 0 19.6000 124.000 5 87 936 19.5000 124.000 ST 90 945 19.6000 123.900 4 100 6 0
1986316N06146 1986 110 WP MM JOE 1986-11-21 15:00:00 TS 19.8959 123.975 main 245 245 PPPP______P___ WP241986 19.9150 123.942 100 3 19.9225 124.008 5 82 947 9 150 150 8 400 200 19.9225 123.993 5 82 943 19.8075 124.000 ST 85 947 19.9119 123.932 4 97 6 5
1986316N06146 1986 110 WP MM JOE 1986-11-21 18:00:00 TS 20.1590 123.996 80 950 tokyo main 269 269 OOOO______P___ jtwc_wp WP241986 20.2000 124.000 100 3 20.1000 124.000 5 80 950 9 150 150 8 400 200 0 20.2000 124.000 4 77 950 20.1000 124.000 T 80 950 20.1950 123.977 4 95 5 4
1986316N06146 1986 110 WP MM JOE 1986-11-21 21:00:00 TS 20.4026 124.021 main 286 286 PPPP______P___ WP241986 20.4575 124.050 95 2 20.3425 123.985 5 77 952 9 150 150 8 400 200 20.4000 124.043 4 72 955 20.3575 123.993 T 80 950 20.4556 124.035 4 92 5 7
1986316N06146 1986 110 WP MM JOE 1986-11-22 00:00:00 TS 20.6400 124.060 75 955 tokyo main 310 310 OOOO______O___ jtwc_wp WP241986 20.7000 124.100 90 2 20.6000 124.000 5 75 955 9 150 150 8 400 200 0 20.6000 124.100 4 68 960 20.6000 124.000 T 80 950 20.7000 124.100 4 90 5 10
1986316N06146 1986 110 WP MM JOE 1986-11-22 03:00:00 TS 20.8994 124.113 main 337 337 PPPP______P___ WP241986 20.9575 124.143 87 2 20.8500 124.085 5 75 957 9 150 137 8 400 200 20.9000 124.150 4 68 965 20.8500 124.028 T 77 955 20.9393 124.160 4 86 5 13
1986316N06146 1986 110 WP MM JOE 1986-11-22 06:00:00 TS 21.1530 124.186 75 960 tokyo main 350 347 OOOO______P___ jtwc_wp WP241986 21.2000 124.200 85 2 21.1000 124.200 5 75 960 1 150 125 1 400 200 0 21.2000 124.200 4 68 970 21.1000 124.100 T 75 960 21.1649 124.228 4 82 5 18
1986316N06146 1986 110 WP MM JOE 1986-11-22 09:00:00 TS 21.3766 124.272 main 353 347 PPPP______P___ WP241986 21.4000 124.293 80 1 21.3425 124.293 5 72 965 1 137 112 1 375 175 21.4075 124.228 4 68 970 21.3500 124.242 T 75 965 21.3831 124.307 4 78 5 22
1986316N06146 1986 110 WP MM JOE 1986-11-22 12:00:00 TS 21.6000 124.380 70 970 tokyo main 351 345 OOOO______O___ jtwc_wp WP241986 21.6000 124.400 75 1 21.6000 124.400 5 70 970 1 125 100 1 350 150 0 21.6000 124.300 4 68 970 21.6000 124.400 T 75 970 21.6000 124.400 4 75 5 25
1986316N06146 1986 110 WP MM JOE 1986-11-22 15:00:00 TS 21.8588 124.508 main 345 345 PPPP______P___ WP241986 21.8500 124.493 72 1 21.9075 124.550 5 67 972 1 112 90 1 325 162 21.8501 124.492 4 68 970 21.8575 124.500 T 72 972 21.8291 124.507 4 73 6 26
1986316N06146 1986 110 WP MM JOE 1986-11-22 18:00:00 TS 22.1115 124.646 65 975 tokyo main 346 346 OOOO______P___ jtwc_wp WP241986 22.1000 124.600 70 1 22.2000 124.700 5 65 975 1 100 80 1 300 175 0 22.1000 124.700 4 68 970 22.1000 124.600 T 70 975 22.0575 124.628 4 72 5 28
1986316N06146 1986 110 WP MM JOE 1986-11-22 21:00:00 TS 22.3239 124.775 main 359 357 PPPP______P___ WP241986 22.3075 124.750 70 1 22.4150 124.808 5 62 977 1 87 70 1 275 162 22.3075 124.815 4 68 975 22.3075 124.743 T 67 977 22.2822 124.760 4 71 5 30
1986316N06146 1986 110 WP MM JOE 1986-11-23 00:00:00 TS 22.5200 124.900 60 980 tokyo main 364 362 OOOO______O___ jtwc_wp WP241986 22.5000 124.900 70 1 22.6000 124.900 4 60 980 1 75 60 1 250 150 0 22.5000 124.900 4 68 980 22.5000 124.900 T 65 980 22.5000 124.900 4 70 5 28
1986316N06146 1986 110 WP MM JOE 1986-11-23 03:00:00 TS 22.7222 125.010 main 371 368 PPPP______P___ WP241986 22.6999 124.993 67 1 22.8000 124.993 4 57 985 1 75 60 1 250 150 22.7000 124.985 4 63 980 22.7000 125.043 T 62 985 22.7112 125.035 4 67 5 28
1986316N06146 1986 110 WP MM JOE 1986-11-23 06:00:00 TS 22.9230 125.136 55 990 tokyo main 371 370 OOOO______P___ jtwc_wp WP241986 22.9000 125.100 65 1 23.0000 125.100 4 55 990 1 75 60 1 250 150 0 22.9000 125.100 3 58 980 22.9000 125.200 STS 60 990 22.9149 125.178 4 65 5 34
1986316N06146 1986 110 WP MM JOE 1986-11-23 09:00:00 TS 23.1267 125.301 main 379 374 PPPP______P___ WP241986 23.1000 125.285 62 0 23.2074 125.220 4 52 991 1 1 225 150 23.1075 125.277 3 53 985 23.1075 125.392 STS 57 991 23.1112 125.332 4 62 5 40
1986316N06146 1986 110 WP MM JOE 1986-11-23 12:00:00 TS 23.3200 125.500 50 992 tokyo main 389 385 OOOO______O___ jtwc_wp WP241986 23.3000 125.500 60 0 23.4000 125.400 4 50 992 0 1 200 150 0 23.3000 125.500 3 48 990 23.3000 125.600 STS 55 993 23.3000 125.500 2 60 5 47
1986316N06146 1986 110 WP MM JOE 1986-11-23 15:00:00 TS 23.4911 125.723 main 401 401 PPPP______P___ WP241986 23.5075 125.700 57 0 23.5576 125.692 4 50 994 0 1 175 125 23.4500 125.743 3 43 992 23.4500 125.800 STS 52 994 23.4902 125.678 2 58 5 51
1986316N06146 1986 110 WP MM JOE 1986-11-23 18:00:00 TS 23.6545 125.954 50 996 tokyo main 425 425 OOOO______P___ jtwc_wp WP241986 23.7000 125.900 55 0 23.7000 126.000 4 50 996 0 1 150 100 0 23.6000 126.000 2 38 995 23.6000 126.000 STS 50 995 23.6724 125.870 2 57 5 51
1986316N06146 1986 110 WP MM JOE 1986-11-23 21:00:00 TS 23.8256 126.169 main 442 440 PPPP______P___ WP241986 23.8574 126.093 55 0 23.8499 126.223 4 45 997 0 1 125 87 23.7849 126.235 2 38 996 23.7925 126.215 STS 47 995 23.8433 126.078 2 56 5 48
1986316N06146 1986 110 WP MM JOE 1986-11-24 00:00:00 MX 24.0000 126.380 40 998 tokyo main 458 455 OOOO______O___ jtwc_wp WP241986 24.0000 126.300 55 0 24.0000 126.400 3 40 998 0 1 100 75 0 24.0000 126.500 9 38 998 24.0000 126.400 TS 45 995 24.0000 126.300 2 55 5 47
1986316N06146 1986 110 WP MM JOE 1986-11-24 03:00:00 MX 24.1943 126.595 main 473 473 PPPP______P___ WP241986 24.1575 126.542 47 0 24.1500 126.558 3 1001 0 1 24.2500 126.827 9 33 999 24.2299 126.493 TS 42 997 24.1842 126.556 2 50 5 48
1986316N06146 1986 110 WP MM JOE 1986-11-24 06:00:00 MX 24.3696 126.824 1004 tokyo main 489 489 OOOO______P___ jtwc_wp WP241986 24.3000 126.800 40 0 24.3000 126.700 2 1004 0 0 0 24.5000 127.200 9 29 1000 24.4000 126.600 TS 40 1000 24.3478 126.822 2 45 5 55
1986316N06146 1986 110 WP MM JOE 1986-11-24 09:00:00 MX 24.5079 127.086 main 517 517 PPPP______P___ WP241986 24.4450 127.072 37 0 24.4800 126.865 2 1006 0 0 24.6997 127.563 9 29 1000 24.4526 126.850 TS 35 1002 24.4624 127.077 2 40 5 65
1986316N06146 1986 110 WP MM JOE 1986-11-24 12:00:00 MX 24.5895 127.353 1008 tokyo main 546 546 OOOO______O___ jtwc_wp WP241986 24.5000 127.300 35 0 24.6000 127.000 2 1008 0 0 0 24.9000 128.000 9 29 1000 24.4000 127.100 TD 30 1005 24.5000 127.300 2 35 5 77
1986316N06146 1986 110 WP MM JOE 1986-11-24 15:00:00 MX 24.6087 127.580 main 566 566 PPPP______P___ WP241986 24.3874 127.415 32 -1 24.6249 127.035 2 1008 0 0 25.1501 128.570 9 26 1001 24.2699 127.237 TD 30 1005 24.4417 127.474 2 33 4 95
1986316N06146 1986 110 WP MM JOE 1986-11-24 18:00:00 MX 24.5582 127.758 1008 tokyo main 586 586 OOOO______P___ jtwc_wp WP241986 24.2000 127.500 30 -1 24.5000 127.100 2 1008 0 0 0 25.4000 129.200 9 23 1002 24.1000 127.300 TD 30 1005 24.3048 127.606 2 32 4 117
1986316N06146 1986 110 WP MM JOE 1986-11-24 21:00:00 MX 24.4342 127.962 main 609 609 PPP_______P___ WP241986 24.0376 127.633 30 -1 24.2026 127.328 2 1008 0 0 25.6128 129.810 9 21 1003 TD 24.1155 127.710 2 31 5 149
1986316N06146 1986 110 WP MM JOE 1986-11-25 00:00:00 MX 24.1143 128.057 1008 tokyo main 624 609 OOO_______O___ jtwc_wp WP241986 23.9000 127.800 30 -1 23.8000 127.600 2 1008 0 0 0 25.8000 130.400 9 19 1004 23.9000 127.800 1 30 10 186
1986316N06146 1986 110 WP MM JOE 1986-11-25 03:00:00 TS 23.4225 127.838 main 611 611 _P____________ WP241986 -1 23.4225 127.838 2 1010 0 0 9 1 11 183
1986316N06146 1986 110 WP MM JOE 1986-11-25 06:00:00 TS 23.0000 128.000 1012 tokyo main 642 642 _O____________ -1 23.0000 128.000 2 1012 0 0 0 1 9 168
1986316N06146 1986 110 WP MM JOE 1986-11-25 09:00:00 TS 22.5175 128.037 main 660 660 _P____________ -1 22.5175 128.037 2 1014 0 0 1 10 179
1986316N06146 1986 110 WP MM JOE 1986-11-25 12:00:00 TS 22.0000 128.000 1016 tokyo main 682 _O____________ -1 22.0000 128.000 2 1016 0 0 0 10 184

Digital Typhoon Data and Search

About IBTrACS Database

This database is a web-friendly format of International Best Track Archive for Climate Stewardship (IBTrACS), a global best track data archive curated by NOAA dating back to 1842.

Updated: 2021-10-21